Terminal Aerodrome Forecast
Issued by NWS

Home | Current Version | Previous Version | Text Only | Print | Product List | Glossary On
Versions: 1 2 3 4 5 6 7 8 9 10 11 12 13 14 15
000
FTUS45 KABQ 311100
TAFROW
TAF
KROW 311134Z 3112/0112 VRB03KT 4SM BR SCT006 OVC015
      TEMPO 3112/3116 2SM -RA BR OVC006
     FM311800 15006KT P6SM VCSH BKN040
     FM010200 22005KT P6SM BKN050
     FM010800 34007KT P6SM SCT050 BKN100=

USA.gov is the U.S. government's official web portal to all federal, state and local government web resources and services.